Terminal Aerodrome Forecast
Issued by NWS

Home | Current Version | Previous Version | Text Only | Print | Product List | Glossary On
Versions: 1 2 3 4 5 6 7 8 9 10 11 12 13 14 15 16 17 18 19 20 21 22 23 24 25 26 27 28 29 30 31 32 33 34
000
FTUS46 KLOX 020526
TAFLAX
TAF
KLAX 020526Z 0206/0312 26006KT P6SM FEW025
     FM020700 VRB03KT P6SM OVC017
     FM021500 23006KT P6SM BKN022 BKN250
     FM021900 26015KT P6SM SCT250
     FM030400 26007KT P6SM SCT015 BKN250
     FM030600 VRB03KT P6SM BKN015=

USA.gov is the U.S. government's official web portal to all federal, state and local government web resources and services.